Time;durP1;ratioP1;P1;durP2;ratioP2;P2;SDS_P1;SDS_P2;PMS_P1;PMS_P2;Temp;Humidity;BMP_temperature;BMP_pressure;BME280_temperature;BME280_humidity;BME280_pressure;Samples;Min_cycle;Max_cycle;Signal;HPM_P1;HPM_P2
2022/08/06 00:02:25;;;;;;;37.50;12.40;;;;;;;;;;5070190;28;20127;-59
2022/08/06 00:04:57;;;;;;;40.53;10.98;;;;;;;;;;5070329;28;20036;-59
2022/08/06 00:07:24;;;;;;;54.40;12.52;;;;;;;;;;5070535;28;20033;-59
2022/08/06 00:09:52;;;;;;;43.20;12.18;;;;;;;;;;5070268;28;20090;-60
2022/08/06 00:12:26;;;;;;;47.17;12.18;;;;;;;;;;5070302;28;20501;-60
2022/08/06 00:14:55;;;;;;;39.97;12.07;;;;;;;;;;5070726;28;20120;-60
2022/08/06 00:17:24;;;;;;;35.30;11.55;;;;;;;;;;5070291;28;20407;-59
2022/08/06 00:19:57;;;;;;;70.05;14.05;;;;;;;;;;5069915;28;20041;-59
2022/08/06 00:22:26;;;;;;;23.00;11.30;;;;;;;;;;5070655;28;20041;-59
2022/08/06 00:24:55;;;;;;;27.02;10.52;;;;;;;;;;5070440;28;20064;-59
2022/08/06 00:27:23;;;;;;;45.00;11.77;;;;;;;;;;5070035;28;20494;-59
2022/08/06 00:29:55;;;;;;;33.58;11.23;;;;;;;;;;5070780;28;20045;-60
2022/08/06 00:32:30;;;;;;;60.42;13.68;;;;;;;;;;5069712;28;20043;-60
2022/08/06 00:34:57;;;;;;;51.63;12.68;;;;;;;;;;5069606;28;20074;-60
2022/08/06 00:37:26;;;;;;;28.17;11.65;;;;;;;;;;5070489;28;20064;-59
2022/08/06 00:40:14;;;;;;;29.10;11.98;;;;;;;;;;5070039;28;20119;-59
2022/08/06 00:42:50;;;;;;;33.75;12.25;;;;;;;;;;5070248;28;20040;-60
2022/08/06 00:45:20;;;;;;;74.32;15.07;;;;;;;;;;5070405;28;20052;-60
2022/08/06 00:47:50;;;;;;;40.13;12.07;;;;;;;;;;5070208;28;20129;-59
2022/08/06 00:50:32;;;;;;;52.60;12.27;;;;;;;;;;5069991;28;20048;-59
2022/08/06 00:53:00;;;;;;;48.80;13.40;;;;;;;;;;5069971;28;20445;-59
2022/08/06 00:55:28;;;;;;;26.30;12.35;;;;;;;;;;5070377;28;20495;-59
2022/08/06 00:58:01;;;;;;;32.60;12.15;;;;;;;;;;5071147;28;20041;-59
2022/08/06 01:00:29;;;;;;;44.05;13.07;;;;;;;;;;5073475;28;20045;-59
2022/08/06 01:03:02;;;;;;;41.53;12.75;;;;;;;;;;5074143;28;20043;-59
2022/08/06 01:05:29;;;;;;;37.00;12.77;;;;;;;;;;5073774;28;20123;-59
2022/08/06 01:08:16;;;;;;;31.65;13.23;;;;;;;;;;5073226;28;20059;-59
2022/08/06 01:10:43;;;;;;;49.58;13.65;;;;;;;;;;5073358;28;20123;-59
2022/08/06 01:13:10;;;;;;;35.10;12.60;;;;;;;;;;5073554;28;20090;-59
2022/08/06 01:16:07;;;;;;;48.60;13.77;;;;;;;;;;5072852;28;20060;-59
2022/08/06 01:18:39;;;;;;;44.33;12.30;;;;;;;;;;5073708;28;20048;-59
2022/08/06 01:21:06;;;;;;;56.70;13.68;;;;;;;;;;5072303;28;20410;-59
2022/08/06 01:23:55;;;;;;;36.75;14.13;;;;;;;;;;5073749;28;20041;-59
2022/08/06 01:26:28;;;;;;;64.68;15.13;;;;;;;;;;5072968;28;20513;-59
2022/08/06 01:29:01;;;;;;;65.35;14.15;;;;;;;;;;5072468;28;20041;-59
2022/08/06 01:31:48;;;;;;;46.93;13.93;;;;;;;;;;5073249;28;20058;-60
2022/08/06 01:34:27;;;;;;;44.72;12.88;;;;;;;;;;5073330;28;20384;-59
2022/08/06 01:37:01;;;;;;;38.47;12.48;;;;;;;;;;5072614;28;20106;-59
2022/08/06 01:39:29;;;;;;;39.40;13.88;;;;;;;;;;5073193;28;20519;-59
2022/08/06 01:42:16;;;;;;;27.73;12.63;;;;;;;;;;5073162;28;20044;-59
2022/08/06 01:45:01;;;;;;;63.45;14.80;;;;;;;;;;5072771;28;20090;-58
2022/08/06 01:47:30;;;;;;;41.95;13.57;;;;;;;;;;5073126;28;20052;-59
2022/08/06 01:50:17;;;;;;;45.28;13.35;;;;;;;;;;5072637;28;20045;-59
2022/08/06 01:52:54;;;;;;;40.00;13.77;;;;;;;;;;5072474;28;20036;-59
2022/08/06 01:55:27;;;;;;;33.38;12.65;;;;;;;;;;5072598;28;20044;-59
2022/08/06 01:58:17;;;;;;;32.53;14.45;;;;;;;;;;5072590;28;20490;-59
2022/08/06 02:00:54;;;;;;;54.60;15.55;;;;;;;;;;5072991;28;20067;-59
2022/08/06 02:03:35;;;;;;;18.48;13.20;;;;;;;;;;5069210;28;20047;-59
2022/08/06 02:06:20;;;;;;;61.95;16.27;;;;;;;;;;5072911;28;20052;-59
2022/08/06 02:08:55;;;;;;;42.60;15.38;;;;;;;;;;5071333;28;20040;-59
2022/08/06 02:11:22;;;;;;;55.20;17.08;;;;;;;;;;5072054;28;20139;-60
2022/08/06 02:14:09;;;;;;;129.65;19.88;;;;;;;;;;5072028;28;20040;-59
2022/08/06 02:16:38;;;;;;;46.90;16.52;;;;;;;;;;5071879;28;20123;-59
2022/08/06 02:19:09;;;;;;;42.00;15.25;;;;;;;;;;5072240;28;20033;-59
2022/08/06 02:21:42;;;;;;;45.72;15.70;;;;;;;;;;5072056;28;20048;-59
2022/08/06 02:24:09;;;;;;;63.42;16.48;;;;;;;;;;5072767;28;20067;-59
2022/08/06 02:26:37;;;;;;;29.35;15.45;;;;;;;;;;5071910;28;20402;-59
2022/08/06 02:29:10;;;;;;;32.45;15.23;;;;;;;;;;5071671;28;20064;-60
2022/08/06 02:31:40;;;;;;;44.95;16.83;;;;;;;;;;5071875;28;20056;-59
2022/08/06 02:34:18;;;;;;;40.00;16.33;;;;;;;;;;5072070;28;20048;-59
2022/08/06 02:37:07;;;;;;;125.10;20.10;;;;;;;;;;5071913;28;20055;-59
2022/08/06 02:39:51;;;;;;;68.72;17.88;;;;;;;;;;5071859;28;20462;-59
2022/08/06 02:42:26;;;;;;;34.00;17.05;;;;;;;;;;5071790;28;20469;-59
2022/08/06 02:44:59;;;;;;;42.08;17.00;;;;;;;;;;5072019;28;20045;-59
2022/08/06 02:47:28;;;;;;;32.30;16.80;;;;;;;;;;5071641;28;20140;-60
2022/08/06 02:50:17;;;;;;;36.35;18.13;;;;;;;;;;5071285;28;20115;-59
2022/08/06 02:52:48;;;;;;;41.58;18.25;;;;;;;;;;5071711;28;20433;-59
2022/08/06 02:55:25;;;;;;;35.28;16.77;;;;;;;;;;5071686;28;20407;-60
2022/08/06 02:58:08;;;;;;;48.72;18.08;;;;;;;;;;5070957;28;20076;-60
2022/08/06 03:00:40;;;;;;;46.85;16.67;;;;;;;;;;5071601;28;20128;-60
2022/08/06 03:03:19;;;;;;;36.13;16.27;;;;;;;;;;5072153;28;20045;-60
2022/08/06 03:06:00;;;;;;;27.63;16.67;;;;;;;;;;5071300;28;20123;-59
2022/08/06 03:08:27;;;;;;;40.50;17.58;;;;;;;;;;5071033;28;20289;-59
2022/08/06 03:10:55;;;;;;;40.38;17.42;;;;;;;;;;5070762;28;20395;-59
2022/08/06 03:13:23;;;;;;;56.22;17.95;;;;;;;;;;5070718;28;20473;-59
2022/08/06 03:16:02;;;;;;;42.17;17.42;;;;;;;;;;5071191;28;20497;-59
2022/08/06 03:18:29;;;;;;;42.70;16.95;;;;;;;;;;5071211;28;20578;-59
2022/08/06 03:20:57;;;;;;;55.30;17.88;;;;;;;;;;5070215;28;20051;-59
2022/08/06 03:23:24;;;;;;;24.63;15.68;;;;;;;;;;5071103;28;20036;-59
2022/08/06 03:25:53;;;;;;;38.28;16.98;;;;;;;;;;5070613;28;20493;-59
2022/08/06 03:28:20;;;;;;;68.15;19.00;;;;;;;;;;5070391;28;20123;-58
2022/08/06 03:30:48;;;;;;;44.25;17.98;;;;;;;;;;5070760;28;20053;-59
2022/08/06 03:33:22;;;;;;;34.88;15.88;;;;;;;;;;5071484;28;20044;-59
2022/08/06 03:36:09;;;;;;;32.72;15.98;;;;;;;;;;5056164;28;20529;-60
2022/08/06 03:38:40;;;;;;;18.40;14.32;;;;;;;;;;5068698;28;20068;-59
2022/08/06 03:41:08;;;;;;;39.13;17.73;;;;;;;;;;5070466;28;20039;-59
2022/08/06 03:43:35;;;;;;;36.60;16.30;;;;;;;;;;5070414;28;20083;-59
2022/08/06 03:46:48;;;;;;;34.05;16.95;;;;;;;;;;5070877;28;20072;-59
2022/08/06 03:49:38;;;;;;;74.35;19.65;;;;;;;;;;5069460;28;20048;-59
2022/08/06 03:52:08;;;;;;;48.25;18.70;;;;;;;;;;5070587;28;20132;-59
2022/08/06 03:54:42;;;;;;;79.85;19.85;;;;;;;;;;5070580;28;20041;-59
2022/08/06 03:57:10;;;;;;;36.55;17.38;;;;;;;;;;5070864;28;20131;-59
2022/08/06 03:59:38;;;;;;;36.60;17.92;;;;;;;;;;5070522;28;20554;-58
2022/08/06 04:02:23;;;;;;;47.40;17.70;;;;;;;;;;5070486;28;20045;-58
2022/08/06 04:05:10;;;;;;;83.97;19.50;;;;;;;;;;5070526;28;20033;-59
2022/08/06 04:07:39;;;;;;;30.83;16.10;;;;;;;;;;5070562;28;20115;-60
2022/08/06 04:10:23;;;;;;;94.47;19.05;;;;;;;;;;5069875;28;20040;-59
2022/08/06 04:13:02;;;;;;;53.33;17.05;;;;;;;;;;5070020;28;20048;-59
2022/08/06 04:15:49;;;;;;;59.25;16.98;;;;;;;;;;5070375;28;20777;-59
2022/08/06 04:18:17;;;;;;;36.67;15.40;;;;;;;;;;5070724;28;20045;-59
2022/08/06 04:20:46;;;;;;;54.95;16.80;;;;;;;;;;5070052;28;20119;-59
2022/08/06 04:23:18;;;;;;;27.55;14.60;;;;;;;;;;5069860;28;20037;-63
2022/08/06 04:26:05;;;;;;;57.10;16.70;;;;;;;;;;5070385;28;20037;-62
2022/08/06 04:28:41;;;;;;;59.00;16.77;;;;;;;;;;5069591;28;20111;-60
2022/08/06 04:31:10;;;;;;;45.30;15.25;;;;;;;;;;5070244;28;20040;-59
2022/08/06 04:33:39;;;;;;;65.63;16.17;;;;;;;;;;5073234;28;20044;-61
2022/08/06 04:36:13;;;;;;;47.25;14.98;;;;;;;;;;5074265;28;20057;-61
2022/08/06 04:38:50;;;;;;;62.80;15.80;;;;;;;;;;5073610;28;20098;-61
2022/08/06 04:41:17;;;;;;;38.83;13.52;;;;;;;;;;5074006;28;20041;-61
2022/08/06 04:43:45;;;;;;;37.88;13.38;;;;;;;;;;5073957;28;20086;-61
2022/08/06 04:46:20;;;;;;;29.45;13.05;;;;;;;;;;5073912;28;20119;-62
2022/08/06 04:48:47;;;;;;;44.97;12.85;;;;;;;;;;5073822;28;20054;-60
2022/08/06 04:51:22;;;;;;;44.67;13.65;;;;;;;;;;5074264;28;20491;-61
2022/08/06 04:54:09;;;;;;;28.13;12.13;;;;;;;;;;5072608;28;20041;-61
2022/08/06 04:56:38;;;;;;;90.32;16.98;;;;;;;;;;5071475;28;20135;-61
2022/08/06 04:59:15;;;;;;;30.20;13.38;;;;;;;;;;5073759;28;20044;-61
2022/08/06 05:01:42;;;;;;;55.10;15.10;;;;;;;;;;5073168;28;20042;-61
2022/08/06 05:04:28;;;;;;;39.97;12.88;;;;;;;;;;5073659;28;20129;-59
2022/08/06 05:07:06;;;;;;;38.42;13.45;;;;;;;;;;5073184;28;20039;-60
2022/08/06 05:09:36;;;;;;;80.70;17.63;;;;;;;;;;5073428;28;20040;-60
2022/08/06 05:12:29;;;;;;;69.75;16.75;;;;;;;;;;5071551;28;20044;-60
2022/08/06 05:14:58;;;;;;;65.43;16.48;;;;;;;;;;5072643;28;20437;-61
2022/08/06 05:17:29;;;;;;;32.90;15.15;;;;;;;;;;5073426;28;20041;-60
2022/08/06 05:20:11;;;;;;;32.08;14.10;;;;;;;;;;5073395;28;20028;-61
2022/08/06 05:22:55;;;;;;;92.78;17.95;;;;;;;;;;5072735;28;20044;-59
2022/08/06 05:25:28;;;;;;;26.73;13.18;;;;;;;;;;5073778;28;20516;-60
2022/08/06 05:28:01;;;;;;;54.97;15.32;;;;;;;;;;5071886;28;22716;-59
2022/08/06 05:30:43;;;;;;;72.03;16.25;;;;;;;;;;5071464;28;20039;-59
2022/08/06 05:33:10;;;;;;;58.15;14.27;;;;;;;;;;5071931;28;20036;-59
2022/08/06 05:35:42;;;;;;;56.72;15.23;;;;;;;;;;5070750;28;20048;-59
2022/08/06 05:38:28;;;;;;;45.45;12.95;;;;;;;;;;5071430;28;20040;-60
2022/08/06 05:41:01;;;;;;;66.90;13.82;;;;;;;;;;5071498;28;20036;-61
2022/08/06 05:43:29;;;;;;;19.27;10.80;;;;;;;;;;5071709;28;20490;-59
2022/08/06 05:46:20;;;;;;;38.35;11.00;;;;;;;;;;5072760;28;20029;-60
2022/08/06 05:48:53;;;;;;;75.80;12.55;;;;;;;;;;5072363;28;20052;-60
2022/08/06 05:51:26;;;;;;;41.42;10.73;;;;;;;;;;5072083;28;20120;-60
2022/08/06 05:54:15;;;;;;;48.00;9.95;;;;;;;;;;5071188;28;20044;-58
2022/08/06 05:56:42;;;;;;;48.08;10.15;;;;;;;;;;5070209;28;20059;-58
2022/08/06 05:59:16;;;;;;;32.33;9.05;;;;;;;;;;5072211;28;20059;-59
2022/08/06 06:02:04;;;;;;;31.38;9.02;;;;;;;;;;5072773;28;20482;-60
2022/08/06 06:04:33;;;;;;;31.42;8.70;;;;;;;;;;5070821;28;20048;-57
2022/08/06 06:07:01;;;;;;;65.32;10.25;;;;;;;;;;5072178;28;20131;-58
2022/08/06 06:09:30;;;;;;;15.95;7.78;;;;;;;;;;5072853;28;20037;-61
2022/08/06 06:12:17;;;;;;;49.17;9.05;;;;;;;;;;5072342;28;20048;-58
2022/08/06 06:14:48;;;;;;;45.97;8.85;;;;;;;;;;5072049;28;20045;-58
2022/08/06 06:17:15;;;;;;;47.92;9.48;;;;;;;;;;5071805;28;20051;-58
2022/08/06 06:20:07;;;;;;;52.90;9.07;;;;;;;;;;5071733;28;20040;-58
2022/08/06 06:22:53;;;;;;;15.85;6.68;;;;;;;;;;5049445;28;20049;-58
2022/08/06 06:25:29;;;;;;;39.38;7.95;;;;;;;;;;5049215;28;20049;-57
2022/08/06 06:28:17;;;;;;;35.35;7.18;;;;;;;;;;5048802;28;20099;-58
2022/08/06 06:30:57;;;;;;;51.80;7.97;;;;;;;;;;5049683;28;20497;-58
2022/08/06 06:33:36;;;;;;;79.28;9.90;;;;;;;;;;5049552;28;20049;-58
2022/08/06 06:36:28;;;;;;;20.08;6.70;;;;;;;;;;5048236;28;20057;-58
2022/08/06 06:39:27;;;;;;;20.50;6.40;;;;;;;;;;5049949;28;20045;-58
2022/08/06 06:42:10;;;;;;;17.63;6.38;;;;;;;;;;4987144;28;20563;-58
2022/08/06 06:45:12;;;;;;;50.63;8.52;;;;;;;;;;4986208;28;20095;-58
2022/08/06 06:48:06;;;;;;;102.35;11.70;;;;;;;;;;4986324;28;20521;-58
2022/08/06 06:50:41;;;;;;;34.60;8.10;;;;;;;;;;4977853;28;20043;-58
2022/08/06 06:53:09;;;;;;;28.45;7.22;;;;;;;;;;4979522;28;20145;-58
2022/08/06 06:55:39;;;;;;;54.38;8.80;;;;;;;;;;4985000;28;20476;-57
2022/08/06 06:58:33;;;;;;;28.90;7.72;;;;;;;;;;4977980;28;20062;-58
2022/08/06 07:01:00;;;;;;;30.15;8.10;;;;;;;;;;5000519;28;20517;-58
2022/08/06 07:03:47;;;;;;;58.13;9.10;;;;;;;;;;5006017;28;20187;-58
2022/08/06 07:06:14;;;;;;;29.73;7.32;;;;;;;;;;5020911;28;20418;-58
2022/08/06 07:09:01;;;;;;;46.10;8.35;;;;;;;;;;5006050;28;20081;-58
2022/08/06 07:11:42;;;;;;;55.67;9.20;;;;;;;;;;5003608;28;20809;-58
2022/08/06 07:14:29;;;;;;;76.13;9.50;;;;;;;;;;5003945;28;20045;-59
2022/08/06 07:16:59;;;;;;;93.07;11.02;;;;;;;;;;5019151;28;20061;-58
2022/08/06 07:19:26;;;;;;;33.75;7.53;;;;;;;;;;5070448;28;20060;-58
2022/08/06 07:21:56;;;;;;;40.58;7.95;;;;;;;;;;5070681;28;20048;-58
2022/08/06 07:24:24;;;;;;;30.10;7.40;;;;;;;;;;5071240;28;20509;-58
2022/08/06 07:27:06;;;;;;;73.78;10.02;;;;;;;;;;5069446;28;20049;-58
2022/08/06 07:29:40;;;;;;;39.63;7.45;;;;;;;;;;5070145;28;20044;-58
2022/08/06 07:32:27;;;;;;;34.58;7.20;;;;;;;;;;5069811;28;20043;-59
2022/08/06 07:34:58;;;;;;;33.63;7.25;;;;;;;;;;5070399;28;20041;-66
2022/08/06 07:37:25;;;;;;;83.63;9.45;;;;;;;;;;5070313;28;20506;-62
2022/08/06 07:40:06;;;;;;;32.03;6.22;;;;;;;;;;5070713;28;20037;-67
2022/08/06 07:42:34;;;;;;;43.10;6.35;;;;;;;;;;5070461;28;20041;-65
2022/08/06 07:45:03;;;;;;;61.22;6.95;;;;;;;;;;5070892;28;20047;-68
2022/08/06 07:47:38;;;;;;;391.75;31.83;;;;;;;;;;5069296;28;20690;-70
2022/08/06 07:50:21;;;;;;;28.48;3.88;;;;;;;;;;5067662;28;20047;-69
2022/08/06 07:52:50;;;;;;;142.10;11.32;;;;;;;;;;5070482;28;20048;-62
2022/08/06 07:55:17;;;;;;;41.67;5.97;;;;;;;;;;5070355;28;20047;-63
2022/08/06 07:57:44;;;;;;;49.22;5.35;;;;;;;;;;5070288;28;20380;-65
2022/08/06 08:00:25;;;;;;;51.40;5.68;;;;;;;;;;5070598;28;20045;-67
2022/08/06 08:06:20;;;;;;;44.33;6.00;;;;;;;;;;5070549;28;20045;-65
2022/08/06 08:09:07;;;;;;;72.47;7.13;;;;;;;;;;5072331;28;20115;-64
2022/08/06 08:11:40;;;;;;;25.55;5.25;;;;;;;;;;5070951;28;20090;-62
2022/08/06 08:14:27;;;;;;;57.20;8.77;;;;;;;;;;5070031;28;20081;-65
2022/08/06 08:16:54;;;;;;;22.95;5.47;;;;;;;;;;5070069;28;20063;-66
2022/08/06 08:19:24;;;;;;;30.15;5.53;;;;;;;;;;5074375;28;20045;-67
2022/08/06 08:21:51;;;;;;;96.95;9.40;;;;;;;;;;5073391;28;20041;-63
2022/08/06 08:24:18;;;;;;;31.13;6.65;;;;;;;;;;5075199;28;20462;-69
2022/08/06 08:26:44;;;;;;;45.38;7.35;;;;;;;;;;5073424;28;20045;-64
2022/08/06 08:29:31;;;;;;;37.15;7.75;;;;;;;;;;5073390;28;20048;-65
2022/08/06 08:32:00;;;;;;;41.53;8.82;;;;;;;;;;5073665;28;20051;-66
2022/08/06 08:34:26;;;;;;;60.22;10.98;;;;;;;;;;5073697;28;20115;-72
2022/08/06 08:36:55;;;;;;;63.05;10.88;;;;;;;;;;5073265;28;20052;-72
2022/08/06 08:39:27;;;;;;;35.85;8.63;;;;;;;;;;5075143;28;20124;-73
2022/08/06 08:41:58;;;;;;;;;;;;;;;;;;5073599;28;20157;-70
2022/08/06 08:44:27;;;;;;;30.48;11.38;;;;;;;;;;5073136;28;19924;-67
2022/08/06 08:46:57;;;;;;;81.70;14.07;;;;;;;;;;5073458;28;20402;-68
2022/08/06 08:49:24;;;;;;;41.92;13.30;;;;;;;;;;5073602;28;20043;-68
2022/08/06 08:51:52;;;;;;;55.03;13.57;;;;;;;;;;5073402;28;20050;-66
2022/08/06 08:54:22;;;;;;;73.78;15.07;;;;;;;;;;5074023;28;20040;-69
2022/08/06 08:56:51;;;;;;;91.20;17.50;;;;;;;;;;5073899;28;20113;-81
2022/08/06 08:59:39;;;;;;;68.90;16.77;;;;;;;;;;5073251;28;20140;-81
2022/08/06 09:02:27;;;;;;;50.30;16.13;;;;;;;;;;5075900;28;20044;-83
2022/08/06 09:04:56;;;;;;;115.55;20.52;;;;;;;;;;5072663;28;20044;-83
2022/08/06 09:07:26;;;;;;;64.70;17.98;;;;;;;;;;5075786;28;20040;-84
2022/08/06 09:10:08;;;;;;;86.85;20.52;;;;;;;;;;5059055;28;20032;-83
2022/08/06 09:12:42;;;;;;;26.52;1.63;;;;;;;;;;5073017;28;20041;-77
2022/08/06 09:15:14;;;;;;;21.58;1.38;;;;;;;;;;5073454;28;20032;-79
2022/08/06 09:17:44;;;;;;;0.10;0.10;;;;;;;;;;5073368;28;20041;-79
2022/08/06 09:20:30;;;;;;;41.53;2.53;;;;;;;;;;5074072;28;20033;-68
2022/08/06 09:22:58;;;;;;;20.17;1.27;;;;;;;;;;5072079;28;20060;-70
2022/08/06 09:25:35;;;;;;;24.80;1.63;;;;;;;;;;5072202;28;20376;-70
2022/08/06 09:28:30;;;;;;;20.05;1.25;;;;;;;;;;5072348;28;20068;-70
2022/08/06 09:30:58;;;;;;;19.65;1.23;;;;;;;;;;5073061;28;20841;-70
2022/08/06 09:33:26;;;;;;;24.48;1.65;;;;;;;;;;5073590;28;20037;-71
2022/08/06 09:36:13;;;;;;;39.17;2.70;;;;;;;;;;5069814;28;20439;-69
2022/08/06 09:38:51;;;;;;;29.98;2.42;;;;;;;;;;5071414;28;20068;-72
2022/08/06 09:41:18;;;;;;;35.42;2.88;;;;;;;;;;5071172;28;20071;-69
2022/08/06 09:43:50;;;;;;;65.30;3.80;;;;;;;;;;5070382;28;20040;-71
2022/08/06 09:46:40;;;;;;;34.83;2.20;;;;;;;;;;5071196;28;20036;-71
2022/08/06 09:49:10;;;;;;;61.17;3.65;;;;;;;;;;5070920;28;20055;-71
2022/08/06 09:52:12;;;;;;;29.08;1.98;;;;;;;;;;5072029;28;20058;-72
2022/08/06 09:54:39;;;;;;;26.52;1.70;;;;;;;;;;5072884;28;20588;-70
2022/08/06 09:57:06;;;;;;;1.75;0.13;;;;;;;;;;5071721;28;20391;-71
2022/08/06 09:59:46;;;;;;;31.48;1.95;;;;;;;;;;5072432;28;20043;-71
2022/08/06 10:02:19;;;;;;;19.80;1.25;;;;;;;;;;5072481;28;20119;-71
2022/08/06 10:05:05;;;;;;;35.25;2.45;;;;;;;;;;5072344;28;20036;-71
2022/08/06 10:07:31;;;;;;;93.50;9.02;;;;;;;;;;5072621;28;20506;-70
2022/08/06 10:10:07;;;;;;;41.90;2.53;;;;;;;;;;5072524;28;20052;-71
2022/08/06 10:12:35;;;;;;;15.38;0.98;;;;;;;;;;5072211;28;20044;-71
2022/08/06 10:15:03;;;;;;;5.82;0.40;;;;;;;;;;5072940;28;20094;-71
2022/08/06 10:17:34;;;;;;;17.50;1.25;;;;;;;;;;5072275;28;20045;-69
2022/08/06 10:20:18;;;;;;;14.20;0.95;;;;;;;;;;5072537;28;20445;-69
2022/08/06 10:22:51;;;;;;;32.45;2.00;;;;;;;;;;5071788;28;20127;-70
2022/08/06 10:25:20;;;;;;;42.67;2.58;;;;;;;;;;5072084;28;20037;-69
2022/08/06 10:27:56;;;;;;;81.53;4.78;;;;;;;;;;5071463;28;20047;-70
2022/08/06 10:30:22;;;;;;;13.00;0.90;;;;;;;;;;5072174;28;20048;-70
2022/08/06 10:33:01;;;;;;;11.23;0.80;;;;;;;;;;5071829;28;20116;-70
2022/08/06 10:35:28;;;;;;;18.00;1.13;;;;;;;;;;5071663;28;20728;-70
2022/08/06 10:37:58;;;;;;;95.18;23.52;;;;;;;;;;5071699;28;20414;-70
2022/08/06 10:40:30;;;;;;;162.77;27.10;;;;;;;;;;5071889;28;20036;-71
2022/08/06 10:42:58;;;;;;;96.25;20.05;;;;;;;;;;5058493;28;20036;-70
2022/08/06 10:45:26;;;;;;;94.53;18.27;;;;;;;;;;5067385;28;20055;-70
2022/08/06 10:48:12;;;;;;;66.55;14.23;;;;;;;;;;5071065;28;20064;-70
2022/08/06 10:50:59;;;;;;;35.13;2.60;;;;;;;;;;5071031;28;20033;-69
2022/08/06 10:53:26;;;;;;;13.77;0.90;;;;;;;;;;5071597;28;20074;-69
2022/08/06 10:56:14;;;;;;;29.98;1.85;;;;;;;;;;5070953;28;20048;-68
2022/08/06 10:58:48;;;;;;;31.52;1.88;;;;;;;;;;5071077;28;20055;-69
2022/08/06 11:01:14;;;;;;;31.15;1.95;;;;;;;;;;5071334;28;20086;-69
2022/08/06 11:03:44;;;;;;;35.88;2.17;;;;;;;;;;5071374;28;20072;-68
2022/08/06 11:06:17;;;;;;;61.95;19.90;;;;;;;;;;5071675;28;20079;-69
2022/08/06 11:08:56;;;;;;;134.70;24.98;;;;;;;;;;5070067;28;20466;-69
2022/08/06 11:11:25;;;;;;;47.92;18.25;;;;;;;;;;5071308;28;20082;-68
2022/08/06 11:13:59;;;;;;;68.45;18.88;;;;;;;;;;5070502;28;20036;-68
2022/08/06 11:16:30;;;;;;;56.67;16.85;;;;;;;;;;5071222;28;20044;-68
2022/08/06 11:19:00;;;;;;;65.50;16.13;;;;;;;;;;5071007;28;20063;-68
2022/08/06 11:21:40;;;;;;;94.35;21.35;;;;;;;;;;5071496;28;20509;-69
2022/08/06 11:24:27;;;;;;;35.90;14.35;;;;;;;;;;5070752;28;20519;-69
2022/08/06 11:26:54;;;;;;;126.93;19.20;;;;;;;;;;5070183;28;20521;-69
2022/08/06 11:29:56;;;;;;;70.97;17.13;;;;;;;;;;5068718;28;20148;-70
2022/08/06 11:32:42;;;;;;;75.82;20.33;;;;;;;;;;5068931;28;20064;-69
2022/08/06 11:35:27;;;;;;;74.13;16.75;;;;;;;;;;5068992;28;20135;-70
2022/08/06 11:37:56;;;;;;;109.38;19.50;;;;;;;;;;5060747;28;20037;-69
2022/08/06 11:41:21;;;;;;;38.88;10.32;;;;;;;;;;5060181;28;20033;-71
2022/08/06 11:44:08;;;;;;;32.25;1.98;;;;;;;;;;5047998;28;20059;-71
2022/08/06 11:46:35;;;;;;;5.75;0.45;;;;;;;;;;5048307;28;20056;-70
2022/08/06 11:49:31;;;;;;;22.92;1.48;;;;;;;;;;5048260;28;20570;-71
2022/08/06 11:52:09;;;;;;;45.80;2.67;;;;;;;;;;5048185;28;20159;-71
2022/08/06 11:54:46;;;;;;;20.30;1.27;;;;;;;;;;5048385;28;20048;-69
2022/08/06 11:57:13;;;;;;;28.42;1.67;;;;;;;;;;5048058;28;20139;-69
2022/08/06 11:59:59;;;;;;;46.40;12.70;;;;;;;;;;5047901;28;20051;-69
2022/08/06 12:02:41;;;;;;;44.22;11.55;;;;;;;;;;5047826;28;20126;-70
2022/08/06 12:05:12;;;;;;;31.77;8.65;;;;;;;;;;5047978;28;20048;-70
2022/08/06 12:07:39;;;;;;;57.47;9.02;;;;;;;;;;5047662;28;20080;-70
2022/08/06 12:10:17;;;;;;;22.25;1.33;;;;;;;;;;5048019;28;20065;-70
2022/08/06 12:12:55;;;;;;;50.75;3.00;;;;;;;;;;5047538;28;20579;-71
2022/08/06 12:15:26;;;;;;;17.23;1.15;;;;;;;;;;5064453;28;20062;-71
2022/08/06 12:18:12;;;;;;;47.60;2.85;;;;;;;;;;5069445;28;20043;-70
2022/08/06 12:20:46;;;;;;;19.30;1.23;;;;;;;;;;5070185;28;20039;-72
2022/08/06 12:23:21;;;;;;;52.50;3.17;;;;;;;;;;5070110;28;20441;-72
2022/08/06 12:25:55;;;;;;;27.58;1.67;;;;;;;;;;5068461;28;20041;-71
2022/08/06 12:28:23;;;;;;;28.48;1.80;;;;;;;;;;5070040;28;20040;-70
2022/08/06 12:30:50;;;;;;;84.35;4.93;;;;;;;;;;5069599;28;20115;-68
2022/08/06 12:33:19;;;;;;;23.80;1.50;;;;;;;;;;5066661;28;20045;-71
2022/08/06 12:35:56;;;;;;;50.30;3.05;;;;;;;;;;5067667;28;20067;-69
2022/08/06 12:38:24;;;;;;;36.17;2.10;;;;;;;;;;5068061;28;20063;-71
2022/08/06 12:40:53;;;;;;;37.72;2.30;;;;;;;;;;5069673;28;20090;-71
2022/08/06 12:43:22;;;;;;;8.82;0.70;;;;;;;;;;5069302;28;20551;-71
2022/08/06 12:46:09;;;;;;;16.83;1.10;;;;;;;;;;5069926;28;20098;-72
2022/08/06 12:48:49;;;;;;;77.65;4.50;;;;;;;;;;5068988;28;20479;-69
2022/08/06 12:51:16;;;;;;;20.38;1.27;;;;;;;;;;5070461;28;20051;-80
2022/08/06 12:53:50;;;;;;;33.85;2.03;;;;;;;;;;5070507;28;20082;-67
2022/08/06 12:56:18;;;;;;;57.17;3.35;;;;;;;;;;5073280;28;20497;-67
2022/08/06 12:58:58;;;;;;;24.75;1.52;;;;;;;;;;5072907;28;20101;-66
2022/08/06 13:01:26;;;;;;;35.70;2.17;;;;;;;;;;5072836;28;20048;-67
2022/08/06 13:04:13;;;;;;;19.60;1.23;;;;;;;;;;5073780;28;20044;-68
2022/08/06 13:06:42;;;;;;;44.05;2.70;;;;;;;;;;5076226;28;20079;-65
2022/08/06 13:09:09;;;;;;;25.80;1.60;;;;;;;;;;5073446;28;20045;-71
2022/08/06 13:11:35;;;;;;;20.73;1.33;;;;;;;;;;5073077;28;20046;-71
2022/08/06 13:14:08;;;;;;;132.35;7.78;;;;;;;;;;5069957;28;20448;-67
2022/08/06 13:16:44;;;;;;;21.50;1.45;;;;;;;;;;5070118;28;20044;-63
2022/08/06 13:19:21;;;;;;;75.75;4.75;;;;;;;;;;5072092;28;20036;-66
2022/08/06 13:22:07;;;;;;;24.77;1.58;;;;;;;;;;5071846;28;20039;-65
2022/08/06 13:24:34;;;;;;;59.42;3.65;;;;;;;;;;5072094;28;20036;-65
2022/08/06 13:27:01;;;;;;;42.83;2.78;;;;;;;;;;5071280;28;20414;-72
2022/08/06 13:29:34;;;;;;;26.38;1.60;;;;;;;;;;5071894;28;20032;-62
2022/08/06 13:32:23;;;;;;;20.27;1.33;;;;;;;;;;5069836;28;20047;-65
2022/08/06 13:35:01;;;;;;;44.42;2.78;;;;;;;;;;5068206;28;20521;-66
2022/08/06 13:37:44;;;;;;;50.78;3.15;;;;;;;;;;5070381;28;20505;-66
2022/08/06 13:40:36;;;;;;;88.88;5.28;;;;;;;;;;5071315;28;20063;-68
2022/08/06 13:43:02;;;;;;;26.40;1.73;;;;;;;;;;5071504;28;20048;-72
2022/08/06 13:45:30;;;;;;;15.18;1.42;;;;;;;;;;5072937;28;20104;-69
2022/08/06 13:48:16;;;;;;;49.63;3.08;;;;;;;;;;5072742;28;20044;-68
2022/08/06 13:50:49;;;;;;;55.45;3.40;;;;;;;;;;5072408;28;20048;-68
2022/08/06 13:53:16;;;;;;;10.13;0.68;;;;;;;;;;5072251;28;20090;-71
2022/08/06 13:55:43;;;;;;;50.90;3.03;;;;;;;;;;5071622;28;20033;-74
2022/08/06 13:58:29;;;;;;;60.03;3.88;;;;;;;;;;5070691;28;20418;-77
2022/08/06 14:00:55;;;;;;;25.75;1.58;;;;;;;;;;5071750;28;20059;-80
2022/08/06 14:03:23;;;;;;;17.77;1.10;;;;;;;;;;5073230;28;20040;-78
2022/08/06 14:05:49;;;;;;;17.20;4.65;;;;;;;;;;5071733;28;20135;-79
2022/08/06 14:08:17;;;;;;;33.30;2.03;;;;;;;;;;5072074;28;20064;-79
2022/08/06 14:10:59;;;;;;;72.60;4.35;;;;;;;;;;5070317;28;20414;-76
2022/08/06 14:13:26;;;;;;;57.55;3.50;;;;;;;;;;5069917;28;20422;-77
2022/08/06 14:15:53;;;;;;;60.72;3.67;;;;;;;;;;5070376;28;20075;-79
2022/08/06 14:18:20;;;;;;;37.00;3.05;;;;;;;;;;5071192;28;20573;-78
2022/08/06 14:20:46;;;;;;;18.10;1.30;;;;;;;;;;5071606;28;20043;-78
2022/08/06 14:23:15;;;;;;;28.15;1.83;;;;;;;;;;5071794;28;20091;-77
2022/08/06 14:25:42;;;;;;;28.25;1.75;;;;;;;;;;5072015;28;20043;-76
2022/08/06 14:28:28;;;;;;;24.25;1.70;;;;;;;;;;5071088;28;20044;-76
2022/08/06 14:30:55;;;;;;;63.08;3.88;;;;;;;;;;5071514;28;20491;-75
2022/08/06 14:33:21;;;;;;;37.10;2.30;;;;;;;;;;5071927;28;20075;-76
2022/08/06 14:35:52;;;;;;;26.25;1.70;;;;;;;;;;5071575;28;20059;-75
2022/08/06 14:38:22;;;;;;;33.88;2.13;;;;;;;;;;5071377;28;20094;-75
2022/08/06 14:46:28;;;;;;;44.47;2.72;;;;;;;;;;5071255;28;20563;-60
2022/08/06 14:48:59;;;;;;;44.33;2.75;;;;;;;;;;5071542;28;20094;-71
2022/08/06 14:51:38;;;;;;;12.05;0.77;;;;;;;;;;5071515;28;20047;-70
2022/08/06 14:54:25;;;;;;;43.58;2.63;;;;;;;;;;5069802;28;20098;-70
2022/08/06 14:56:58;;;;;;;38.92;3.83;;;;;;;;;;5070930;28;20506;-70
2022/08/06 14:59:25;;;;;;;24.77;1.60;;;;;;;;;;5071200;28;20044;-70
2022/08/06 15:02:08;;;;;;;26.55;1.70;;;;;;;;;;5070390;28;20540;-70
2022/08/06 15:04:34;;;;;;;32.47;2.08;;;;;;;;;;5071086;28;20043;-69
2022/08/06 15:07:03;;;;;;;23.02;1.98;;;;;;;;;;5071529;28;20039;-70
2022/08/06 15:09:31;;;;;;;8.88;0.68;;;;;;;;;;5071918;28;20131;-69
2022/08/06 15:12:18;;;;;;;36.88;2.20;;;;;;;;;;5070857;28;20143;-69
2022/08/06 15:15:04;;;;;;;65.47;3.83;;;;;;;;;;5070399;28;20049;-69
2022/08/06 15:17:38;;;;;;;12.05;0.80;;;;;;;;;;5070529;28;20049;-66
2022/08/06 15:20:25;;;;;;;56.70;3.40;;;;;;;;;;5070326;28;20090;-66